createdAt,value
2022-08-02T00:00:35.043Z,94.10
2022-08-02T00:03:03.105Z,93.20
2022-08-02T00:05:31.036Z,92.00
2022-08-02T00:08:00.436Z,92.80
2022-08-02T00:10:28.580Z,93.70
2022-08-02T00:12:58.737Z,91.40
2022-08-02T00:15:26.939Z,92.00
2022-08-02T00:17:54.928Z,92.00
2022-08-02T00:20:23.035Z,92.20
2022-08-02T00:22:51.011Z,92.50
2022-08-02T00:25:20.407Z,91.40
2022-08-02T00:27:48.391Z,91.00
2022-08-02T00:30:16.404Z,90.60
2022-08-02T00:32:44.338Z,91.90
2022-08-02T00:35:12.318Z,92.30
2022-08-02T00:37:41.558Z,92.50
2022-08-02T00:40:10.722Z,93.40
2022-08-02T00:42:40.673Z,92.50
2022-08-02T00:45:09.699Z,92.10
2022-08-02T00:47:37.689Z,91.90
2022-08-02T00:50:06.531Z,92.80
2022-08-02T00:52:34.532Z,93.60
2022-08-02T00:55:02.496Z,95.80
2022-08-02T00:57:30.423Z,93.90
2022-08-02T00:59:59.770Z,93.70
2022-08-02T01:02:27.695Z,92.80
2022-08-02T01:04:55.647Z,91.90
2022-08-02T01:07:23.644Z,91.70
2022-08-02T01:09:51.615Z,92.60
2022-08-02T01:12:19.659Z,93.50
2022-08-02T01:14:50.749Z,92.80
2022-08-02T01:17:30.108Z,91.60
2022-08-02T01:20:05.967Z,91.00
2022-08-02T01:23:03.369Z,91.50
2022-08-02T01:25:57.845Z,91.60
2022-08-02T01:28:37.289Z,92.60
2022-08-02T01:31:17.397Z,92.30
2022-08-02T01:33:49.537Z,92.20
2022-08-02T01:36:21.206Z,92.30
2022-08-02T01:38:53.944Z,91.60
2022-08-02T01:41:26.318Z,91.30
2022-08-02T01:43:59.383Z,92.20
2022-08-02T01:46:28.791Z,93.50
2022-08-02T01:48:58.988Z,93.20
2022-08-02T01:51:43.057Z,93.70
2022-08-02T01:54:15.449Z,93.90
2022-08-02T01:56:44.930Z,94.60
2022-08-02T01:59:17.582Z,93.00
2022-08-02T02:01:47.001Z,93.00
2022-08-02T02:04:17.110Z,92.20
2022-08-02T02:06:46.442Z,91.70
2022-08-02T02:09:16.556Z,92.00
2022-08-02T02:12:05.810Z,92.10
2022-08-02T02:14:36.354Z,92.50
2022-08-02T02:17:05.395Z,93.10
2022-08-02T02:19:35.198Z,93.40
2022-08-02T02:22:03.719Z,93.30
2022-08-02T02:24:32.051Z,92.50
2022-08-02T02:27:01.946Z,93.20
2022-08-02T02:29:32.463Z,94.10
2022-08-02T02:32:02.592Z,93.20
2022-08-02T02:34:34.227Z,92.10
2022-08-02T02:37:04.570Z,91.90
2022-08-02T02:39:34.565Z,91.60
2022-08-02T02:42:08.949Z,92.20
2022-08-02T02:44:39.543Z,92.70
2022-08-02T02:47:11.186Z,92.20
2022-08-02T02:49:40.053Z,92.90
2022-08-02T02:52:09.391Z,92.80
2022-08-02T02:54:39.122Z,93.30
2022-08-02T02:57:07.780Z,93.60
2022-08-02T02:59:49.079Z,93.20
2022-08-02T03:02:19.917Z,94.00
2022-08-02T03:04:56.844Z,94.90
2022-08-02T03:07:26.486Z,94.40
2022-08-02T03:09:55.144Z,93.10
2022-08-02T03:12:30.193Z,92.80
2022-08-02T03:14:59.853Z,92.50
2022-08-02T03:17:38.925Z,92.40
2022-08-02T03:20:10.938Z,93.20
2022-08-02T03:22:38.954Z,92.80
2022-08-02T03:25:08.098Z,92.60
2022-08-02T03:27:36.075Z,92.50
2022-08-02T03:30:05.375Z,92.60
2022-08-02T03:32:35.516Z,92.00
2022-08-02T03:35:04.134Z,92.00
2022-08-02T03:37:33.925Z,92.40
2022-08-02T03:40:02.485Z,92.40
2022-08-02T03:42:30.894Z,93.20
2022-08-02T03:45:04.890Z,93.40
2022-08-02T03:47:38.512Z,92.60
2022-08-02T03:50:08.628Z,92.60
2022-08-02T03:52:37.792Z,93.00
2022-08-02T03:55:06.582Z,92.30
2022-08-02T03:57:34.768Z,92.10
2022-08-02T04:00:02.688Z,92.70
2022-08-02T04:02:30.636Z,93.00
2022-08-02T04:04:59.924Z,93.40
2022-08-02T04:08:34.425Z,92.70
2022-08-02T04:10:15.997Z,92.30
2022-08-02T04:12:44.256Z,92.00
2022-08-02T04:15:15.442Z,92.60
2022-08-02T04:17:49.221Z,93.10
2022-08-02T04:20:21.067Z,93.50
2022-08-02T04:22:52.566Z,93.60
2022-08-02T04:25:35.546Z,94.30
2022-08-02T04:28:17.011Z,94.60
2022-08-02T04:30:47.283Z,95.20
2022-08-02T04:33:15.996Z,93.20
2022-08-02T04:35:46.022Z,93.20
2022-08-02T04:38:15.889Z,93.50
2022-08-02T04:40:52.263Z,93.50
2022-08-02T04:43:20.509Z,93.50
2022-08-02T04:45:50.651Z,93.90
2022-08-02T04:48:18.728Z,93.60
2022-08-02T04:50:48.085Z,94.50
2022-08-02T04:53:16.153Z,94.70
2022-08-02T04:55:45.052Z,94.70
2022-08-02T04:58:38.987Z,94.80
2022-08-02T05:01:01.071Z,95.30
2022-08-02T05:03:29.023Z,95.10
2022-08-02T05:05:58.437Z,95.40
2022-08-02T05:08:26.373Z,95.70
2022-08-02T05:10:54.330Z,96.00
2022-08-02T05:13:22.281Z,96.10
2022-08-02T05:15:50.835Z,96.10
2022-08-02T05:18:18.827Z,96.50
2022-08-02T05:20:46.798Z,96.30
2022-08-02T05:23:16.104Z,96.30
2022-08-02T05:25:44.031Z,96.30
2022-08-02T05:28:12.101Z,96.60
2022-08-02T05:30:40.806Z,96.80
2022-08-02T05:33:08.846Z,96.70
2022-08-02T05:35:36.865Z,96.10
2022-08-02T05:38:05.030Z,95.80
2022-08-02T05:40:54.292Z,95.40
2022-08-02T05:43:23.285Z,95.30
2022-08-02T05:45:53.455Z,95.10
2022-08-02T05:48:21.977Z,95.20
2022-08-02T05:50:55.229Z,95.30
2022-08-02T05:53:33.230Z,95.20
2022-08-02T05:56:14.654Z,95.20
2022-08-02T05:58:52.292Z,95.20
2022-08-02T06:01:29.116Z,95.50
2022-08-02T06:03:59.929Z,95.40
2022-08-02T06:06:30.138Z,96.20
2022-08-02T06:09:02.926Z,95.50
2022-08-02T06:11:37.021Z,95.00
2022-08-02T06:14:07.067Z,95.70
2022-08-02T06:16:41.979Z,95.60
2022-08-02T06:19:13.027Z,95.90
2022-08-02T06:22:35.918Z,96.10
2022-08-02T06:24:33.440Z,95.60
2022-08-02T06:27:03.853Z,96.70
2022-08-02T06:29:38.534Z,96.50
2022-08-02T06:32:08.817Z,96.10
2022-08-02T06:34:38.455Z,95.80
2022-08-02T06:37:14.954Z,95.40
2022-08-02T06:39:46.702Z,95.20
2022-08-02T06:42:26.877Z,95.00
2022-08-02T06:44:57.794Z,95.00
2022-08-02T06:47:26.539Z,95.20
2022-08-02T06:49:55.070Z,94.70
2022-08-02T06:52:29.396Z,94.60
2022-08-02T06:54:59.578Z,95.10
2022-08-02T06:57:31.255Z,94.50
2022-08-02T07:00:05.077Z,94.50
2022-08-02T07:02:33.392Z,94.60
2022-08-02T07:05:01.387Z,94.40
2022-08-02T07:07:29.446Z,95.00
2022-08-02T07:10:01.320Z,95.90
2022-08-02T07:12:32.774Z,94.80
2022-08-02T07:15:01.033Z,95.10
2022-08-02T07:17:29.389Z,94.10
2022-08-02T07:19:57.430Z,94.20
2022-08-02T07:22:27.064Z,95.60
2022-08-02T07:24:56.753Z,94.60
2022-08-02T07:27:25.277Z,94.00
2022-08-02T07:29:55.441Z,94.30
2022-08-02T07:32:25.428Z,93.60
2022-08-02T07:34:55.217Z,93.40
2022-08-02T07:37:52.929Z,93.30
2022-08-02T07:40:19.948Z,93.20
2022-08-02T07:42:49.567Z,93.20
2022-08-02T07:45:19.325Z,93.00
2022-08-02T07:47:47.661Z,92.80
2022-08-02T07:50:17.113Z,92.70
2022-08-02T07:52:45.800Z,92.60
2022-08-02T07:55:16.435Z,92.50
2022-08-02T07:57:46.667Z,92.40
2022-08-02T08:00:17.219Z,92.30
2022-08-02T08:02:47.285Z,92.20
2022-08-02T08:05:15.847Z,92.10
2022-08-02T08:07:43.993Z,92.10
2022-08-02T08:10:12.470Z,91.90
2022-08-02T08:12:40.428Z,91.90
2022-08-02T08:15:09.456Z,91.80
2022-08-02T08:17:38.024Z,91.70
2022-08-02T08:20:10.823Z,92.20
2022-08-02T08:22:40.828Z,91.80
2022-08-02T08:25:09.464Z,91.60
2022-08-02T08:27:37.441Z,91.60
2022-08-02T08:30:06.109Z,91.50
2022-08-02T08:32:34.105Z,91.50
2022-08-02T08:35:03.597Z,91.50
2022-08-02T08:37:36.392Z,91.40
2022-08-02T08:40:05.836Z,91.40
2022-08-02T08:42:34.188Z,91.20
2022-08-02T08:45:02.152Z,91.00
2022-08-02T08:47:35.574Z,91.20
2022-08-02T08:50:05.938Z,90.70
2022-08-02T08:52:41.013Z,91.30
2022-08-02T08:55:11.703Z,90.90
2022-08-02T08:57:42.918Z,90.90
2022-08-02T09:00:13.402Z,90.80
2022-08-02T09:02:43.406Z,90.50
2022-08-02T09:05:12.619Z,90.20
2022-08-02T09:07:44.842Z,89.20
2022-08-02T09:10:35.993Z,88.50
2022-08-02T09:13:31.339Z,88.00
2022-08-02T09:16:12.450Z,87.20
2022-08-02T09:18:45.126Z,86.90
2022-08-02T09:21:14.923Z,86.40
2022-08-02T09:23:46.325Z,85.20
2022-08-02T09:26:16.659Z,85.00
2022-08-02T09:28:47.111Z,85.10
2022-08-02T09:31:17.036Z,85.30
2022-08-02T09:33:46.343Z,85.00
2022-08-02T09:36:16.195Z,85.00
2022-08-02T09:38:55.443Z,84.70
2022-08-02T09:41:25.720Z,84.60
2022-08-02T09:44:04.302Z,84.90
2022-08-02T09:46:37.364Z,85.30
2022-08-02T09:49:08.140Z,85.10
2022-08-02T09:51:38.408Z,86.00
2022-08-02T09:54:09.460Z,85.30
2022-08-02T09:56:43.179Z,84.80
2022-08-02T09:59:11.687Z,85.50
2022-08-02T10:01:41.966Z,85.20
2022-08-02T10:04:22.640Z,85.50
2022-08-02T10:06:54.506Z,85.80
2022-08-02T10:09:24.261Z,85.20
2022-08-02T10:11:53.007Z,84.90
2022-08-02T10:14:23.160Z,85.50
2022-08-02T10:16:51.436Z,84.60
2022-08-02T10:20:00.507Z,84.60
2022-08-02T10:22:11.005Z,83.40
2022-08-02T10:24:48.422Z,84.10
2022-08-02T10:27:19.663Z,83.50
2022-08-02T10:29:55.301Z,84.10
2022-08-02T10:32:27.882Z,84.50
2022-08-02T10:35:18.424Z,84.40
2022-08-02T10:37:51.605Z,84.80
2022-08-02T10:40:29.804Z,84.70
2022-08-02T10:43:00.935Z,85.60
2022-08-02T10:45:29.566Z,84.50
2022-08-02T10:48:03.430Z,84.10
2022-08-02T10:50:53.599Z,84.50
2022-08-02T10:53:26.832Z,85.20
2022-08-02T10:55:57.330Z,85.30
2022-08-02T10:58:29.428Z,85.10
2022-08-02T11:00:58.970Z,84.70
2022-08-02T11:03:40.741Z,84.60
2022-08-02T11:06:25.112Z,84.30
2022-08-02T11:09:31.811Z,85.20
2022-08-02T11:12:05.498Z,84.40
2022-08-02T11:14:35.441Z,83.90
2022-08-02T11:17:13.354Z,83.50
2022-08-02T11:20:15.424Z,82.90
2022-08-02T11:22:45.213Z,82.70
2022-08-02T11:26:00.923Z,82.10
2022-08-02T11:28:25.220Z,81.80
2022-08-02T11:31:03.100Z,81.60
2022-08-02T11:33:36.698Z,81.50
2022-08-02T11:36:07.666Z,81.40
2022-08-02T11:38:36.064Z,80.70
2022-08-02T11:41:09.678Z,81.00
2022-08-02T11:43:39.786Z,82.10
2022-08-02T11:46:15.395Z,81.40
2022-08-02T11:48:45.137Z,80.90
2022-08-02T11:51:14.630Z,81.30
2022-08-02T11:53:44.736Z,81.50
2022-08-02T11:56:13.792Z,81.20
2022-08-02T11:59:09.840Z,81.00
2022-08-02T12:01:45.972Z,81.10
2022-08-02T12:04:22.606Z,80.80
2022-08-02T12:07:00.050Z,80.70
2022-08-02T12:09:29.710Z,80.00
2022-08-02T12:11:58.094Z,80.60
2022-08-02T12:14:30.666Z,80.10
2022-08-02T12:17:16.802Z,80.50
2022-08-02T12:19:45.348Z,80.60
2022-08-02T12:22:18.644Z,80.40
2022-08-02T12:24:49.113Z,80.20
2022-08-02T12:27:34.969Z,80.20
2022-08-02T12:30:08.304Z,80.20
2022-08-02T12:32:36.915Z,80.20
2022-08-02T12:35:26.459Z,80.40
2022-08-02T12:37:54.920Z,80.30
2022-08-02T12:40:26.085Z,80.20
2022-08-02T12:42:58.788Z,80.00
2022-08-02T12:45:40.740Z,80.50
2022-08-02T12:48:09.514Z,80.00
2022-08-02T12:50:38.291Z,79.40
2022-08-02T12:53:08.756Z,79.10
2022-08-02T12:56:01.426Z,78.80
2022-08-02T12:58:29.365Z,78.40
2022-08-02T13:01:01.019Z,78.20
2022-08-02T13:04:11.735Z,78.30
2022-08-02T13:06:43.032Z,76.90
2022-08-02T13:09:14.597Z,75.80
2022-08-02T13:11:43.320Z,77.10
2022-08-02T13:14:12.081Z,76.10
2022-08-02T13:16:42.227Z,75.30
2022-08-02T13:19:10.241Z,76.10
2022-08-02T13:21:41.567Z,75.10
2022-08-02T13:24:41.269Z,75.30
2022-08-02T13:27:14.291Z,75.60
2022-08-02T13:29:42.252Z,75.50
2022-08-02T13:32:11.990Z,75.70
2022-08-02T13:34:40.325Z,75.90
2022-08-02T13:37:08.321Z,76.10
2022-08-02T13:39:36.274Z,75.30
2022-08-02T13:42:04.341Z,74.90
2022-08-02T13:44:33.942Z,73.00
2022-08-02T13:47:02.446Z,75.30
2022-08-02T13:49:42.601Z,75.20
2022-08-02T13:52:19.715Z,74.70
2022-08-02T13:54:47.671Z,74.50
2022-08-02T13:57:15.659Z,74.10
2022-08-02T13:59:58.237Z,73.40
2022-08-02T14:02:28.153Z,74.50
2022-08-02T14:04:57.926Z,73.20
2022-08-02T14:07:25.964Z,74.30
2022-08-02T14:09:54.079Z,73.40
2022-08-02T14:12:21.999Z,73.50
2022-08-02T14:14:50.005Z,72.50
2022-08-02T14:17:18.822Z,72.20
2022-08-02T14:19:46.946Z,72.70
2022-08-02T14:22:16.285Z,72.50
2022-08-02T14:24:44.732Z,72.10
2022-08-02T14:27:12.684Z,72.00
2022-08-02T14:29:40.667Z,72.10
2022-08-02T14:32:09.306Z,72.20
2022-08-02T14:34:37.262Z,71.80
2022-08-02T14:37:05.240Z,70.70
2022-08-02T14:39:42.978Z,70.40
2022-08-02T14:42:22.568Z,70.00
2022-08-02T14:44:50.528Z,69.10
2022-08-02T14:47:18.499Z,68.90
2022-08-02T14:49:50.108Z,68.40
2022-08-02T14:52:18.795Z,68.30
2022-08-02T14:54:48.171Z,67.70
2022-08-02T14:57:16.885Z,67.60
2022-08-02T14:59:44.955Z,67.70
2022-08-02T15:02:13.525Z,67.60
2022-08-02T15:04:43.543Z,67.60
2022-08-02T15:07:12.576Z,67.90
2022-08-02T15:09:40.547Z,67.00
2022-08-02T15:12:11.527Z,67.30
2022-08-02T15:14:39.763Z,67.60
2022-08-02T15:17:09.011Z,67.30
2022-08-02T15:19:57.506Z,68.60
2022-08-02T15:22:24.997Z,67.60
2022-08-02T15:24:53.189Z,67.60
2022-08-02T15:27:22.518Z,66.60
2022-08-02T15:29:50.894Z,66.20
2022-08-02T15:32:19.858Z,67.10
2022-08-02T15:34:48.497Z,67.10
2022-08-02T15:37:16.531Z,67.10
2022-08-02T15:39:44.803Z,66.50
2022-08-02T15:42:13.575Z,66.60
2022-08-02T15:44:44.862Z,67.00
2022-08-02T15:47:13.195Z,66.10
2022-08-02T15:49:41.857Z,67.90
2022-08-02T15:52:11.045Z,67.20
2022-08-02T15:54:39.253Z,67.30
2022-08-02T15:57:07.465Z,66.50
2022-08-02T15:59:35.413Z,67.00
2022-08-02T16:02:06.611Z,66.70
2022-08-02T16:04:34.611Z,65.70
2022-08-02T16:07:02.557Z,65.90
2022-08-02T16:09:30.523Z,64.70
2022-08-02T16:11:58.496Z,65.30
2022-08-02T16:14:26.696Z,66.00
2022-08-02T16:16:56.051Z,66.10
2022-08-02T16:19:47.810Z,66.70
2022-08-02T16:22:13.618Z,67.60
2022-08-02T16:24:41.794Z,67.30
2022-08-02T16:27:09.768Z,67.90
2022-08-02T16:29:37.965Z,67.00
2022-08-02T16:32:06.740Z,66.00
2022-08-02T16:35:03.991Z,65.30
2022-08-02T16:37:24.600Z,65.60
2022-08-02T16:39:52.642Z,66.00
2022-08-02T16:42:25.457Z,65.10
2022-08-02T16:44:54.835Z,64.10
2022-08-02T16:47:42.676Z,64.40
2022-08-02T16:50:12.911Z,64.70
2022-08-02T16:52:40.978Z,63.80
2022-08-02T16:55:11.052Z,63.50
2022-08-02T16:57:43.414Z,63.10
2022-08-02T17:00:15.575Z,63.60
2022-08-02T17:02:44.285Z,62.60
2022-08-02T17:05:16.515Z,62.30
2022-08-02T17:08:15.139Z,62.60
2022-08-02T17:10:33.717Z,63.50
2022-08-02T17:13:11.713Z,62.70
2022-08-02T17:16:08.268Z,62.50
2022-08-02T17:18:28.773Z,62.80
2022-08-02T17:20:58.185Z,62.90
2022-08-02T17:24:03.920Z,62.70
2022-08-02T17:26:14.242Z,63.40
2022-08-02T17:29:03.770Z,62.80
2022-08-02T17:31:37.261Z,63.80
2022-08-02T17:34:11.178Z,63.60
2022-08-02T17:36:40.638Z,68.00
2022-08-02T17:39:08.909Z,64.50
2022-08-02T17:41:48.961Z,64.80
2022-08-02T17:44:37.768Z,64.80
2022-08-02T17:47:07.028Z,64.60
2022-08-02T17:49:42.763Z,64.00
2022-08-02T17:52:51.737Z,64.30
2022-08-02T17:55:06.049Z,64.40
2022-08-02T17:57:56.292Z,64.00
2022-08-02T18:00:21.987Z,64.30
2022-08-02T18:02:53.020Z,64.20
2022-08-02T18:05:39.153Z,64.50
2022-08-02T18:08:08.960Z,64.30
2022-08-02T18:10:36.942Z,65.00
2022-08-02T18:13:05.254Z,64.50
2022-08-02T18:15:33.494Z,65.10
2022-08-02T18:18:01.592Z,65.30
2022-08-02T18:20:29.566Z,65.50
2022-08-02T18:22:58.765Z,66.00
2022-08-02T18:25:37.554Z,66.20
2022-08-02T18:28:15.159Z,66.40
2022-08-02T18:30:43.402Z,65.80
2022-08-02T18:33:58.455Z,65.20
2022-08-02T18:35:59.529Z,65.40
2022-08-02T18:38:30.248Z,66.00
2022-08-02T18:41:02.752Z,66.40
2022-08-02T18:43:31.323Z,66.60
2022-08-02T18:48:53.024Z,68.60
2022-08-02T18:51:21.011Z,68.90
2022-08-02T18:53:52.233Z,69.20
2022-08-02T18:56:24.705Z,69.20
2022-08-02T18:58:53.340Z,69.60
2022-08-02T19:01:32.219Z,69.80
2022-08-02T19:04:03.989Z,70.80
2022-08-02T19:06:32.233Z,70.60
2022-08-02T19:09:06.067Z,70.70
2022-08-02T19:11:47.930Z,70.90
2022-08-02T19:14:24.096Z,71.20
2022-08-02T19:16:56.992Z,70.90
2022-08-02T19:19:28.758Z,70.60
2022-08-02T19:22:16.176Z,70.50
2022-08-02T19:24:45.933Z,70.50
2022-08-02T19:27:15.582Z,70.50
2022-08-02T19:29:51.073Z,70.40
2022-08-02T19:32:42.835Z,70.30
2022-08-02T19:35:19.488Z,70.20
2022-08-02T19:38:06.156Z,70.30
2022-08-02T19:40:34.335Z,70.40
2022-08-02T19:44:24.592Z,70.40
2022-08-02T19:45:53.081Z,71.10
2022-08-02T19:48:27.155Z,70.50
2022-08-02T19:53:48.568Z,70.80
2022-08-02T19:56:24.751Z,70.80
2022-08-02T19:58:57.516Z,70.80
2022-08-02T20:01:28.435Z,70.70
2022-08-02T20:04:13.643Z,70.60
2022-08-02T20:06:45.562Z,70.70
2022-08-02T20:09:16.555Z,70.80
2022-08-02T20:11:45.181Z,71.00
2022-08-02T20:14:14.462Z,71.20
2022-08-02T20:16:42.444Z,71.30
2022-08-02T20:19:11.961Z,71.20
2022-08-02T20:21:42.830Z,71.70
2022-08-02T20:24:14.444Z,71.80
2022-08-02T20:26:47.933Z,72.00
2022-08-02T20:29:44.803Z,72.00
2022-08-02T20:32:07.916Z,71.80
2022-08-02T20:34:36.609Z,71.60
2022-08-02T20:38:01.088Z,71.50
2022-08-02T20:39:53.852Z,71.40
2022-08-02T20:42:23.896Z,71.20
2022-08-02T20:44:54.964Z,71.70
2022-08-02T20:47:27.568Z,72.00
2022-08-02T20:50:31.542Z,72.10
2022-08-02T20:53:00.218Z,72.40
2022-08-02T20:55:31.125Z,72.60
2022-08-02T20:58:02.059Z,72.80
2022-08-02T21:00:32.635Z,72.90
2022-08-02T21:03:00.850Z,73.10
2022-08-02T21:05:43.470Z,73.20
2022-08-02T21:08:14.716Z,73.40
2022-08-02T21:10:52.349Z,73.50
2022-08-02T21:13:23.872Z,73.50
2022-08-02T21:15:55.092Z,73.60
2022-08-02T21:18:40.384Z,73.90
2022-08-02T21:21:09.830Z,74.10
2022-08-02T21:23:38.160Z,74.20
2022-08-02T21:26:09.083Z,74.20
2022-08-02T21:28:44.940Z,74.10
2022-08-02T21:31:15.947Z,73.90
2022-08-02T21:33:56.949Z,74.30
2022-08-02T21:36:30.946Z,74.70
2022-08-02T21:39:00.316Z,74.80
2022-08-02T21:41:39.773Z,74.80
2022-08-02T21:44:16.378Z,74.80
2022-08-02T21:46:46.612Z,74.80
2022-08-02T21:49:18.071Z,74.90
2022-08-02T21:51:49.252Z,75.20
2022-08-02T21:54:20.423Z,75.10
2022-08-02T21:56:49.767Z,75.20
2022-08-02T21:59:18.403Z,75.40
2022-08-02T22:01:56.821Z,75.50
2022-08-02T22:04:26.210Z,75.80
2022-08-02T22:06:54.897Z,75.70
2022-08-02T22:09:44.176Z,75.70
2022-08-02T22:12:16.965Z,75.70
2022-08-02T22:14:53.889Z,75.80
2022-08-02T22:17:51.656Z,75.70
2022-08-02T22:20:15.431Z,75.80
2022-08-02T22:22:48.110Z,76.00
2022-08-02T22:28:35.210Z,75.70
2022-08-02T22:30:57.007Z,76.40
2022-08-02T22:33:46.937Z,76.70
2022-08-02T22:36:28.810Z,76.80
2022-08-02T22:38:57.268Z,76.90
2022-08-02T22:41:25.277Z,76.90
2022-08-02T22:44:13.334Z,77.10
2022-08-02T22:46:42.827Z,77.20
2022-08-02T22:49:36.832Z,77.30
2022-08-02T22:52:00.174Z,77.30
2022-08-02T22:54:28.147Z,77.30
2022-08-02T22:56:57.484Z,77.40
2022-08-02T22:58:45.465Z,68.00
2022-08-02T22:58:53.395Z,70.50
2022-08-02T22:59:38.907Z,77.40
2022-08-02T23:02:08.186Z,77.50
2022-08-02T23:04:37.807Z,77.50
2022-08-02T23:07:06.228Z,77.40
2022-08-02T23:09:34.189Z,77.80
2022-08-02T23:12:02.151Z,77.90
2022-08-02T23:14:30.121Z,78.00
2022-08-02T23:17:15.514Z,78.10
2022-08-02T23:19:53.548Z,78.10
2022-08-02T23:22:27.890Z,78.40
2022-08-02T23:24:58.732Z,78.20
2022-08-02T23:27:26.850Z,78.30
2022-08-02T23:29:54.862Z,78.50
2022-08-02T23:32:25.858Z,78.80
2022-08-02T23:34:56.641Z,78.90
2022-08-02T23:37:25.407Z,78.60
2022-08-02T23:39:53.514Z,78.50
2022-08-02T23:42:23.201Z,78.60
2022-08-02T23:44:51.165Z,78.70
2022-08-02T23:47:19.275Z,78.00
2022-08-02T23:49:47.647Z,78.40
2022-08-02T23:52:17.252Z,78.50
2022-08-02T23:54:45.444Z,78.90
2022-08-02T23:57:20.579Z,79.20
2022-08-02T23:59:50.914Z,79.70
